Time;durP1;ratioP1;P1;durP2;ratioP2;P2;SDS_P1;SDS_P2;PMS_P1;PMS_P2;Temp;Humidity;BMP_temperature;BMP_pressure;BME280_temperature;BME280_humidity;BME280_pressure;Samples;Min_cycle;Max_cycle;Signal;HPM_P1;HPM_P2
2021/09/15 00:00:19;;;;;;;;;;;;;;;15.15;74.26;98363.91;1601384;88;20267;-86
2021/09/15 00:02:47;;;;;;;;;;;;;;;15.07;74.28;98361.95;1601328;89;20284;-86
2021/09/15 00:05:13;;;;;;;;;;;;;;;14.98;74.32;98366.25;1573197;91;21182;-86
2021/09/15 00:07:39;;;;;;;;;;;;;;;14.92;74.37;98362.00;1569030;90;20841;-86
2021/09/15 00:10:05;;;;;;;;;;;;;;;14.86;74.42;98357.27;1570757;90;20302;-86
2021/09/15 00:12:32;;;;;;;;;;;;;;;14.84;74.48;98353.44;1576810;89;25587;-85
2021/09/15 00:14:58;;;;;;;;;;;;;;;14.85;74.54;98351.64;1589335;89;22119;-86
2021/09/15 00:17:25;;;;;;;;;;;;;;;14.87;74.62;98353.67;1589499;89;26007;-85
2021/09/15 00:19:51;;;;;;;;;;;;;;;14.85;74.72;98349.02;1592197;88;24504;-85
2021/09/15 00:22:19;;;;;;;;;;;;;;;14.84;74.79;98349.97;1598869;89;20466;-85
2021/09/15 00:24:45;;;;;;;;;;;;;;;14.88;74.88;98349.59;1574048;90;24930;-85
2021/09/15 00:27:11;;;;;;;;;;;;;;;14.97;74.96;98349.25;1601420;88;21944;-85
2021/09/15 00:29:38;;;;;;;;;;;;;;;15.00;75.05;98350.31;1574832;91;21076;-84
2021/09/15 00:32:05;;;;;;;;;;;;;;;15.12;75.13;98351.82;1600221;88;24474;-84
2021/09/15 00:34:34;;;;;;;;;;;;;;;15.22;75.20;98357.93;1575410;90;20233;-84
2021/09/15 00:37:01;;;;;;;;;;;;;;;15.30;75.28;98356.77;1601447;88;25732;-84
2021/09/15 00:39:26;;;;;;;;;;;;;;;15.33;75.33;98355.64;1576107;90;22220;-85
2021/09/15 00:41:52;;;;;;;;;;;;;;;15.32;75.36;98344.29;1601892;89;20972;-85
2021/09/15 00:44:19;;;;;;;;;;;;;;;15.29;75.38;98351.62;1575312;90;20326;-86
2021/09/15 00:46:45;;;;;;;;;;;;;;;15.25;75.43;98354.20;1601762;88;20337;-86
2021/09/15 00:49:13;;;;;;;;;;;;;;;15.23;75.48;98354.33;1575313;90;24796;-86
2021/09/15 00:51:42;;;;;;;;;;;;;;;15.17;75.53;98350.09;1601982;89;22606;-87
2021/09/15 00:54:09;;;;;;;;;;;;;;;15.10;75.54;98351.15;1575495;90;26045;-86
2021/09/15 00:56:41;;;;;;;;;;;;;;;14.96;75.52;98351.53;1601865;89;24537;-86
2021/09/15 00:59:07;;;;;;;;;;;;;;;14.80;75.50;98349.42;1575356;90;20307;-86
2021/09/15 01:01:33;;;;;;;;;;;;;;;14.72;75.54;98347.13;1601930;88;24721;-86
2021/09/15 01:04:00;;;;;;;;;;;;;;;14.67;75.62;98349.34;1581765;89;20402;-87
2021/09/15 01:06:28;;;;;;;;;;;;;;;14.63;75.68;98346.95;1601858;89;25981;-87
2021/09/15 01:08:54;;;;;;;;;;;;;;;14.63;75.75;98343.48;1555126;91;24473;-87
2021/09/15 01:11:31;;;;;;;;;;;;;;;14.64;75.83;98341.20;1601841;88;20252;-87
2021/09/15 01:13:58;;;;;;;;;;;;;;;14.78;75.94;98347.91;1575027;90;24925;-85
2021/09/15 01:16:24;;;;;;;;;;;;;;;14.86;76.06;98353.31;1599761;88;21995;-85
2021/09/15 01:18:50;;;;;;;;;;;;;;;14.94;76.13;98356.13;1574607;90;20990;-85
2021/09/15 01:21:16;;;;;;;;;;;;;;;14.95;76.17;98345.42;1601614;89;24522;-85
2021/09/15 01:23:51;;;;;;;;;;;;;;;15.06;76.23;98351.89;1575064;90;20306;-85
2021/09/15 01:26:28;;;;;;;;;;;;;;;15.18;76.28;98349.95;1601858;88;25444;-85
2021/09/15 01:28:59;;;;;;;;;;;;;;;15.12;76.29;98354.45;1575050;90;22673;-85
2021/09/15 01:31:25;;;;;;;;;;;;;;;15.07;76.29;98350.92;1601925;89;26083;-85
2021/09/15 01:33:51;;;;;;;;;;;;;;;14.98;76.30;98353.07;1574252;90;24412;-85
2021/09/15 01:36:17;;;;;;;;;;;;;;;14.88;76.29;98357.50;1601898;89;20918;-85
2021/09/15 01:38:43;;;;;;;;;;;;;;;14.78;76.29;98353.18;1575744;89;20238;-84
2021/09/15 01:41:09;;;;;;;;;;;;;;;14.86;76.31;98358.59;1599877;88;20275;-84
2021/09/15 01:43:35;;;;;;;;;;;;;;;14.97;76.36;98351.88;1565773;91;20937;-85
2021/09/15 01:46:01;;;;;;;;;;;;;;;15.08;76.44;98356.55;1594848;88;20299;-85
2021/09/15 01:48:27;;;;;;;;;;;;;;;15.12;76.47;98352.30;1571822;91;20230;-85
2021/09/15 01:50:53;;;;;;;;;;;;;;;15.00;76.41;98354.27;1590628;88;20784;-85
2021/09/15 01:53:19;;;;;;;;;;;;;;;14.86;76.40;98349.37;1571643;90;20401;-85
2021/09/15 01:55:47;;;;;;;;;;;;;;;14.72;76.35;98349.77;1595454;88;26035;-85
2021/09/15 01:58:13;;;;;;;;;;;;;;;14.67;76.36;98351.49;1591216;89;24478;-85
2021/09/15 02:00:39;;;;;;;;;;;;;;;14.68;76.38;98349.66;1565924;90;20381;-85
2021/09/15 02:03:05;;;;;;;;;;;;;;;14.64;76.43;98347.79;1591172;89;20355;-85
2021/09/15 02:05:31;;;;;;;;;;;;;;;14.56;76.46;98347.13;1568180;90;22161;-85
2021/09/15 02:07:57;;;;;;;;;;;;;;;14.49;76.46;98339.44;1595219;88;26014;-85
2021/09/15 02:10:23;;;;;;;;;;;;;;;14.41;76.45;98339.73;1565625;89;20369;-85
2021/09/15 02:12:49;;;;;;;;;;;;;;;14.33;76.46;98340.39;1596513;88;20291;-85
2021/09/15 02:15:19;;;;;;;;;;;;;;;14.31;76.47;98344.94;1593703;89;24799;-85
2021/09/15 02:17:45;;;;;;;;;;;;;;;14.31;76.51;98342.79;1564477;91;22899;-85
2021/09/15 02:20:11;;;;;;;;;;;;;;;14.31;76.55;98344.11;1594223;88;21087;-85
2021/09/15 02:22:37;;;;;;;;;;;;;;;14.36;76.63;98340.11;1565410;90;24606;-85
2021/09/15 02:25:04;;;;;;;;;;;;;;;14.43;76.66;98333.39;1593073;88;20259;-83
2021/09/15 02:27:30;;;;;;;;;;;;;;;14.55;76.72;98325.74;1566860;90;24698;-85
2021/09/15 02:29:56;;;;;;;;;;;;;;;14.57;76.78;98322.47;1598028;88;20281;-84
2021/09/15 02:32:22;;;;;;;;;;;;;;;14.63;76.80;98328.52;1567314;91;20970;-84
2021/09/15 02:34:48;;;;;;;;;;;;;;;14.53;76.81;98325.03;1593641;89;25135;-85
2021/09/15 02:37:14;;;;;;;;;;;;;;;14.41;76.76;98330.05;1572215;90;20259;-85
2021/09/15 02:39:40;;;;;;;;;;;;;;;14.35;76.79;98330.54;1592049;89;24918;-85
2021/09/15 02:42:06;;;;;;;;;;;;;;;14.37;76.81;98327.81;1578609;90;20303;-84
2021/09/15 02:44:32;;;;;;;;;;;;;;;14.40;76.87;98327.56;1606089;88;26089;-84
2021/09/15 02:46:58;;;;;;;;;;;;;;;14.31;76.87;98328.31;1579113;90;20840;-84
2021/09/15 02:49:27;;;;;;;;;;;;;;;14.22;76.88;98336.05;1605986;88;20230;-84
2021/09/15 02:51:52;;;;;;;;;;;;;;;14.20;76.90;98327.92;1579194;90;25695;-85
2021/09/15 02:54:18;;;;;;;;;;;;;;;14.30;76.96;98327.95;1605774;88;20866;-85
2021/09/15 02:56:50;;;;;;;;;;;;;;;14.30;77.02;98332.73;1579503;90;26057;-85
2021/09/15 02:59:16;;;;;;;;;;;;;;;14.22;77.04;98333.91;1604563;89;24513;-84
2021/09/15 03:01:42;;;;;;;;;;;;;;;14.12;77.04;98340.45;1579416;90;20332;-85
2021/09/15 03:04:08;;;;;;;;;;;;;;;14.05;77.05;98337.98;1605903;89;20273;-84
2021/09/15 03:06:34;;;;;;;;;;;;;;;13.99;77.06;98339.81;1579166;91;21921;-85
2021/09/15 03:09:00;;;;;;;;;;;;;;;14.05;77.12;98338.45;1605810;89;20944;-85
2021/09/15 03:11:35;;;;;;;;;;;;;;;14.19;77.20;98338.09;1576655;91;24502;-84
2021/09/15 03:14:01;;;;;;;;;;;;;;;14.22;77.25;98341.32;1594398;89;20231;-85
2021/09/15 03:19:04;;;;;;;;;;;;;;;14.22;77.32;98337.85;1605908;88;22021;-84
2021/09/15 03:21:30;;;;;;;;;;;;;;;14.20;77.35;98336.66;1604837;89;26121;-84
2021/09/15 03:23:56;;;;;;;;;;;;;;;14.13;77.35;98334.67;1579674;90;20254;-84
2021/09/15 03:26:22;;;;;;;;;;;;;;;14.05;77.34;98325.30;1605429;88;20472;-84
2021/09/15 03:28:52;;;;;;;;;;;;;;;14.01;77.33;98334.43;1578456;90;38077;-85
2021/09/15 03:31:19;;;;;;;;;;;;;;;13.94;77.35;98334.11;1604169;88;22130;-85
2021/09/15 03:33:46;;;;;;;;;;;;;;;13.89;77.38;98331.05;1578910;90;27040;-84
2021/09/15 03:36:12;;;;;;;;;;;;;;;13.85;77.42;98331.44;1603889;89;24595;-85
2021/09/15 03:38:38;;;;;;;;;;;;;;;13.99;77.49;98328.45;1578850;90;20498;-85
2021/09/15 03:41:04;;;;;;;;;;;;;;;14.04;77.59;98331.52;1604831;89;24730;-85
2021/09/15 03:43:32;;;;;;;;;;;;;;;14.12;77.67;98323.82;1579523;90;22128;-85
2021/09/15 03:45:58;;;;;;;;;;;;;;;14.08;77.71;98322.39;1605953;89;26154;-84
2021/09/15 03:48:24;;;;;;;;;;;;;;;14.06;77.73;98314.66;1579516;90;20890;-84
2021/09/15 03:50:50;;;;;;;;;;;;;;;14.12;77.78;98318.08;1605257;88;20539;-85
2021/09/15 03:53:16;;;;;;;;;;;;;;;14.07;77.79;98318.92;1579242;90;20252;-84
2021/09/15 03:55:44;;;;;;;;;;;;;;;13.99;77.79;98312.66;1605937;89;20800;-86
2021/09/15 03:58:10;;;;;;;;;;;;;;;13.92;77.78;98318.09;1579599;90;26053;-86
2021/09/15 04:00:36;;;;;;;;;;;;;;;13.83;77.79;98312.66;1606023;88;20921;-85
2021/09/15 04:03:02;;;;;;;;;;;;;;;13.83;77.82;98311.83;1579484;90;20856;-85
2021/09/15 04:05:28;;;;;;;;;;;;;;;13.78;77.81;98312.22;1605872;88;24800;-85
2021/09/15 04:07:54;;;;;;;;;;;;;;;13.73;77.82;98309.63;1579360;90;20330;-85
2021/09/15 04:10:20;;;;;;;;;;;;;;;13.77;77.87;98317.13;1606133;89;20990;-85
2021/09/15 04:12:46;;;;;;;;;;;;;;;13.95;77.96;98317.84;1579474;90;24400;-86
2021/09/15 04:15:12;;;;;;;;;;;;;;;14.07;78.04;98315.48;1605874;89;20814;-86
2021/09/15 04:17:38;;;;;;;;;;;;;;;14.08;78.05;98306.60;1595426;88;24748;-85
2021/09/15 04:20:05;;;;;;;;;;;;;;;14.12;78.07;98307.55;1605691;88;22129;-85
2021/09/15 04:22:33;;;;;;;;;;;;;;;14.00;78.01;98299.87;1578909;89;26744;-85
2021/09/15 04:33:14;;;;;;;;;;;;;;;14.01;77.98;98305.48;1579495;91;22996;-86
2021/09/15 04:35:40;;;;;;;;;;;;;;;14.07;78.01;98305.77;1605823;88;26049;-85
2021/09/15 04:38:08;;;;;;;;;;;;;;;14.10;78.02;98302.89;1579119;90;20856;-86
2021/09/15 04:40:34;;;;;;;;;;;;;;;14.16;78.03;98294.95;1603368;88;20505;-85
2021/09/15 04:43:01;;;;;;;;;;;;;;;14.16;78.01;98292.31;1540643;91;20456;-86
2021/09/15 04:45:27;;;;;;;;;;;;;;;14.06;77.96;98299.34;1564338;90;22072;-87
2021/09/15 04:47:53;;;;;;;;;;;;;;;14.02;77.93;98297.95;1546967;92;21066;-87
2021/09/15 04:50:24;;;;;;;;;;;;;;;14.16;77.96;98304.16;1546853;92;24505;-86
2021/09/15 04:52:50;;;;;;;;;;;;;;;14.28;77.97;98300.95;1544044;92;20227;-87
2021/09/15 04:55:16;;;;;;;;;;;;;;;14.24;77.96;98299.05;1542909;92;20858;-86
2021/09/15 04:57:42;;;;;;;;;;;;;;;14.07;77.92;98303.65;1547509;92;22062;-86
2021/09/15 05:00:10;;;;;;;;;;;;;;;14.03;77.92;98304.38;1545966;92;21016;-87
2021/09/15 05:02:40;;;;;;;;;;;;;;;14.13;77.95;98303.09;1545117;91;24535;-86
2021/09/15 05:05:06;;;;;;;;;;;;;;;14.21;78.01;98294.90;1542442;92;20244;-86
2021/09/15 05:07:32;;;;;;;;;;;;;;;14.20;78.08;98297.17;1541066;92;24778;-86
2021/09/15 05:09:58;;;;;;;;;;;;;;;14.13;78.07;98300.45;1565310;90;20247;-86
2021/09/15 05:12:30;;;;;;;;;;;;;;;14.07;78.09;98301.82;1541023;91;21726;-86
2021/09/15 05:15:03;;;;;;;;;;;;;;;13.98;78.10;98304.42;1530613;92;24593;-86
2021/09/15 05:17:32;;;;;;;;;;;;;;;13.92;78.11;98309.72;1549407;91;20620;-85
2021/09/15 05:22:39;;;;;;;;;;;;;;;13.94;78.21;98303.02;1547555;91;22185;-84
2021/09/15 05:25:06;;;;;;;;;;;;;;;13.96;78.29;98297.16;1550409;91;26682;-85
2021/09/15 05:27:32;;;;;;;;;;;;;;;13.95;78.36;98300.27;1549764;92;24638;-85
2021/09/15 05:29:58;;;;;;;;;;;;;;;13.94;78.42;98300.39;1549872;92;20310;-85
2021/09/15 05:32:24;;;;;;;;;;;;;;;13.99;78.45;98297.72;1547330;92;20900;-85
2021/09/15 05:34:49;;;;;;;;;;;;;;;14.12;78.55;98300.97;1543888;91;20947;-85
2021/09/15 05:37:15;;;;;;;;;;;;;;;14.13;78.63;98301.30;1546912;91;21088;-85
2021/09/15 05:39:41;;;;;;;;;;;;;;;14.25;78.72;98304.67;1549992;91;24551;-85
2021/09/15 05:42:17;;;;;;;;;;;;;;;14.31;78.78;98296.72;1559394;88;20349;-85
2021/09/15 05:44:45;;;;;;;;;;;;;;;14.49;78.86;98307.00;1552943;91;24911;-85
2021/09/15 05:47:20;;;;;;;;;;;;;;;14.64;78.93;98315.70;1553700;91;21570;-85
2021/09/15 05:49:54;;;;;;;;;;;;;;;14.80;79.01;98313.86;1564114;91;26062;-85
2021/09/15 05:52:20;;;;;;;;;;;;;;;14.80;79.01;98302.48;1563986;90;24444;-85
2021/09/15 05:54:52;;;;;;;;;;;;;;;14.76;79.04;98305.05;1564520;91;20251;-85
2021/09/15 05:57:20;;;;;;;;;;;;;;;14.73;79.05;98310.60;1561992;91;24814;-85
2021/09/15 05:59:46;;;;;;;;;;;;;;;14.86;79.09;98301.45;1563151;91;22117;-85
2021/09/15 06:02:12;;;;;;;;;;;;;;;15.02;79.17;98303.06;1562387;91;21252;-85
2021/09/15 06:04:38;;;;;;;;;;;;;;;15.10;79.19;98296.28;1562434;91;20836;-85
2021/09/15 06:07:04;;;;;;;;;;;;;;;15.08;79.22;98291.97;1564378;91;20226;-85
2021/09/15 06:09:39;;;;;;;;;;;;;;;15.12;79.28;98289.88;1564844;91;20766;-85
2021/09/15 06:12:05;;;;;;;;;;;;;;;15.19;79.35;98289.68;1561469;91;22081;-85
2021/09/15 06:14:31;;;;;;;;;;;;;;;15.18;79.43;98286.69;1562306;91;26091;-85
2021/09/15 06:16:57;;;;;;;;;;;;;;;15.11;79.46;98289.52;1562792;91;20244;-86
2021/09/15 06:19:26;;;;;;;;;;;;;;;15.10;79.52;98289.69;1559656;91;20907;-86
2021/09/15 06:21:52;;;;;;;;;;;;;;;15.08;79.56;98290.66;1563985;91;24776;-85
2021/09/15 06:24:18;;;;;;;;;;;;;;;15.09;79.64;98284.90;1563644;91;20253;-85
2021/09/15 06:26:44;;;;;;;;;;;;;;;15.23;79.74;98287.10;1563783;91;25992;-86
2021/09/15 06:29:15;;;;;;;;;;;;;;;15.35;79.85;98287.31;1564081;91;20878;-86
2021/09/15 06:31:49;;;;;;;;;;;;;;;15.43;79.97;98285.30;1565808;90;20520;-86
2021/09/15 06:34:16;;;;;;;;;;;;;;;15.47;80.03;98284.87;1565624;91;24922;-86
2021/09/15 06:36:42;;;;;;;;;;;;;;;15.58;80.13;98281.75;1564422;91;22093;-86
2021/09/15 06:39:08;;;;;;;;;;;;;;;15.75;80.21;98277.06;1551116;89;26107;-86
2021/09/15 06:41:34;;;;;;;;;;;;;;;15.87;80.29;98274.09;1605023;87;24431;-85
2021/09/15 06:44:02;;;;;;;;;;;;;;;15.93;80.37;98277.16;1629018;87;20217;-86
2021/09/15 06:46:28;;;;;;;;;;;;;;;15.98;80.43;98275.75;1628262;87;24658;-85
2021/09/15 06:48:55;;;;;;;;;;;;;;;16.06;80.51;98274.52;1626834;87;22086;-85
2021/09/15 06:51:21;;;;;;;;;;;;;;;16.12;80.56;98284.50;1628560;87;25952;-85
2021/09/15 06:53:48;;;;;;;;;;;;;;;16.16;80.58;98277.94;1626735;87;24486;-85
2021/09/15 06:56:14;;;;;;;;;;;;;;;16.23;80.59;98282.16;1630912;86;20288;-85
2021/09/15 06:58:40;;;;;;;;;;;;;;;16.32;80.63;98275.50;1627240;87;24859;-84
2021/09/15 07:01:06;;;;;;;;;;;;;;;16.45;80.70;98280.94;1630927;87;20882;-84
2021/09/15 07:03:32;;;;;;;;;;;;;;;16.53;80.72;98279.72;1628795;87;21045;-85
2021/09/15 07:05:58;;;;;;;;;;;;;;;16.60;80.76;98275.52;1628756;87;24518;-85
2021/09/15 07:08:24;;;;;;;;;;;;;;;16.70;80.79;98272.31;1623940;87;20617;-85
2021/09/15 07:10:50;;;;;;;;;;;;;;;16.72;80.83;98274.33;1624232;87;20275;-85
2021/09/15 07:13:16;;;;;;;;;;;;;;;16.73;80.83;98277.32;1627296;87;22018;-85
2021/09/15 07:15:43;;;;;;;;;;;;;;;16.82;80.87;98273.77;1629582;87;26102;-85
2021/09/15 07:18:16;;;;;;;;;;;;;;;16.92;80.93;98275.02;1629583;87;24189;-84
2021/09/15 07:20:42;;;;;;;;;;;;;;;16.95;80.96;98274.73;1630843;87;20570;-85
2021/09/15 07:23:09;;;;;;;;;;;;;;;16.96;81.02;98266.66;1629402;87;20266;-85
2021/09/15 07:25:38;;;;;;;;;;;;;;;17.06;81.10;98260.80;1627075;87;23005;-85
2021/09/15 07:28:04;;;;;;;;;;;;;;;17.10;81.20;98264.78;1631167;87;26178;-85
2021/09/15 07:30:30;;;;;;;;;;;;;;;17.12;81.25;98265.97;1627942;87;24491;-85
2021/09/15 07:32:56;;;;;;;;;;;;;;;17.15;81.34;98261.19;1631189;87;20535;-85
2021/09/15 07:35:22;;;;;;;;;;;;;;;17.23;81.41;98267.05;1626007;87;20771;-85
2021/09/15 07:37:48;;;;;;;;;;;;;;;17.33;81.50;98270.92;1630273;87;20220;-85
2021/09/15 07:40:14;;;;;;;;;;;;;;;17.39;81.58;98269.83;1625504;87;25960;-85
2021/09/15 07:42:44;;;;;;;;;;;;;;;17.50;81.65;98270.91;1612140;87;23940;-84
2021/09/15 07:45:12;;;;;;;;;;;;;;;17.61;81.77;98263.72;1591768;89;20524;-84
2021/09/15 07:47:41;;;;;;;;;;;;;;;17.67;81.81;98268.40;1592319;89;25191;-84
2021/09/15 07:50:08;;;;;;;;;;;;;;;17.75;81.86;98265.30;1593419;89;21975;-84
2021/09/15 07:52:34;;;;;;;;;;;;;;;17.82;81.90;98274.28;1594691;89;26145;-84
2021/09/15 07:55:00;;;;;;;;;;;;;;;17.85;81.88;98270.48;1592669;89;20372;-84
2021/09/15 07:57:26;;;;;;;;;;;;;;;17.91;81.87;98273.33;1592318;89;20231;-84
2021/09/15 07:59:53;;;;;;;;;;;;;;;17.95;81.83;98273.34;1593293;89;20601;-84
2021/09/15 08:02:19;;;;;;;;;;;;;;;18.00;81.81;98272.06;1594475;89;21987;-84
2021/09/15 08:04:45;;;;;;;;;;;;;;;18.06;81.75;98275.38;1591782;89;20972;-84
2021/09/15 08:07:10;;;;;;;;;;;;;;;18.12;81.71;98272.11;1591569;89;20862;-84
2021/09/15 08:09:37;;;;;;;;;;;;;;;18.19;81.69;98262.55;1594126;89;20511;-84
2021/09/15 08:12:05;;;;;;;;;;;;;;;18.28;81.71;98266.38;1595335;89;25576;-84
2021/09/15 08:14:39;;;;;;;;;;;;;;;18.36;81.69;98268.25;1594062;89;22162;-84
2021/09/15 08:17:05;;;;;;;;;;;;;;;18.42;81.71;98266.78;1595326;88;25981;-85
2021/09/15 08:19:31;;;;;;;;;;;;;;;18.50;81.69;98268.95;1592873;89;24503;-85
2021/09/15 08:21:58;;;;;;;;;;;;;;;18.58;81.70;98266.86;1591779;89;20814;-85
2021/09/15 08:24:24;;;;;;;;;;;;;;;18.66;81.70;98263.72;1591024;89;24930;-84
2021/09/15 08:26:50;;;;;;;;;;;;;;;18.73;81.69;98258.11;1590868;89;20242;-84
2021/09/15 08:29:16;;;;;;;;;;;;;;;18.84;81.70;98258.80;1593444;89;21245;-84
2021/09/15 08:31:42;;;;;;;;;;;;;;;18.94;81.70;98258.97;1589150;89;20275;-84
2021/09/15 08:34:08;;;;;;;;;;;;;;;19.02;81.65;98265.63;1597429;89;20456;-84
2021/09/15 08:36:34;;;;;;;;;;;;;;;19.09;81.58;98263.95;1593256;89;24894;-84
2021/09/15 08:39:00;;;;;;;;;;;;;;;19.18;81.49;98263.48;1589944;89;22127;-84
2021/09/15 08:41:26;;;;;;;;;;;;;;;19.28;81.40;98263.31;1596187;89;26011;-84
2021/09/15 08:43:52;;;;;;;;;;;;;;;19.40;81.35;98258.83;1631347;86;20240;-84
2021/09/15 08:46:20;;;;;;;;;;;;;;;19.49;81.25;98252.55;1639007;86;20853;-83
2021/09/15 08:48:46;;;;;;;;;;;;;;;19.57;81.12;98260.52;1638068;86;24893;-84
2021/09/15 08:51:23;;;;;;;;;;;;;;;19.64;80.97;98263.30;1640088;86;23185;-84
2021/09/15 08:53:47;;;;;;;;;;;;;;;19.72;80.88;98259.32;1641139;86;26530;-85
2021/09/15 08:56:13;;;;;;;;;;;;;;;19.81;80.74;98257.46;1633517;86;20866;-84
2021/09/15 08:58:40;;;;;;;;;;;;;;;19.92;80.67;98258.44;1639553;86;20294;-84
2021/09/15 09:01:19;;;;;;;;;;;;;;;19.99;80.57;98257.59;1637092;86;24844;-84
2021/09/15 09:03:47;;;;;;;;;;;;;;;20.07;80.48;98255.42;1639253;86;22128;-84
2021/09/15 09:06:17;;;;;;;;;;;;;;;20.17;80.39;98253.39;1616002;86;21101;-84
2021/09/15 09:08:45;;;;;;;;;;;;;;;20.20;80.25;98249.55;1638816;86;25089;-84
2021/09/15 09:11:15;;;;;;;;;;;;;;;20.28;80.10;98253.02;1636749;86;20401;-85
2021/09/15 09:13:52;;;;;;;;;;;;;;;20.36;80.05;98249.00;1662355;85;24740;-85
2021/09/15 09:16:38;;;;;;;;;;;;;;;20.45;79.96;98246.66;1635349;86;22113;-85
2021/09/15 09:19:05;;;;;;;;;;;;;;;20.52;79.83;98245.44;1632088;86;26065;-86
2021/09/15 09:21:33;;;;;;;;;;;;;;;20.61;79.71;98243.58;1643374;86;25065;-85
2021/09/15 09:24:00;;;;;;;;;;;;;;;20.67;79.57;98242.38;1636203;86;20635;-85
2021/09/15 09:26:28;;;;;;;;;;;;;;;20.74;79.41;98240.66;1638414;86;24764;-85
2021/09/15 09:28:54;;;;;;;;;;;;;;;20.83;79.32;98240.12;1629481;86;22094;-86
2021/09/15 09:31:21;;;;;;;;;;;;;;;20.92;79.21;98244.37;1656735;86;26291;-85
2021/09/15 09:33:47;;;;;;;;;;;;;;;20.98;79.07;98238.34;1635390;86;20330;-85
2021/09/15 09:36:13;;;;;;;;;;;;;;;21.05;78.93;98236.63;1638973;86;20589;-85
2021/09/15 09:38:41;;;;;;;;;;;;;;;21.10;78.80;98232.10;1631972;86;24810;-86
2021/09/15 09:41:10;;;;;;;;;;;;;;;21.13;78.60;98235.22;1637398;86;22846;-85
2021/09/15 09:43:38;;;;;;;;;;;;;;;21.22;78.42;98233.37;1632000;86;26054;-85
2021/09/15 09:46:06;;;;;;;;;;;;;;;21.30;78.30;98237.28;1626885;87;24577;-85
2021/09/15 09:48:33;;;;;;;;;;;;;;;21.39;78.22;98232.70;1630201;86;20259;-85
2021/09/15 09:51:00;;;;;;;;;;;;;;;21.45;78.01;98231.98;1630595;87;24792;-85
2021/09/15 09:53:27;;;;;;;;;;;;;;;21.52;77.82;98223.61;1632566;87;21974;-85
2021/09/15 09:55:56;;;;;;;;;;;;;;;21.57;77.57;98226.05;1625701;87;26038;-85
2021/09/15 09:58:25;;;;;;;;;;;;;;;21.63;77.33;98216.50;1627358;87;24408;-85
2021/09/15 10:00:55;;;;;;;;;;;;;;;21.68;77.12;98220.78;1631437;87;20250;-85
2021/09/15 10:03:21;;;;;;;;;;;;;;;21.73;76.85;98217.05;1625709;87;24834;-85
2021/09/15 10:05:48;;;;;;;;;;;;;;;21.79;76.61;98213.66;1625519;87;20779;-85
2021/09/15 10:08:16;;;;;;;;;;;;;;;21.84;76.34;98202.45;1626572;87;26253;-86
2021/09/15 10:10:42;;;;;;;;;;;;;;;21.90;76.04;98215.88;1598919;87;26621;-84
2021/09/15 10:13:16;;;;;;;;;;;;;;;21.97;75.81;98211.50;1627389;87;20335;-86
2021/09/15 10:15:45;;;;;;;;;;;;;;;22.05;75.53;98206.56;1627528;87;24819;-85
2021/09/15 10:18:13;;;;;;;;;;;;;;;22.10;75.26;98205.00;1624452;87;21512;-86
2021/09/15 10:20:47;;;;;;;;;;;;;;;22.16;74.97;98210.09;1629715;87;26090;-86
2021/09/15 10:23:24;;;;;;;;;;;;;;;22.21;74.74;98205.03;1625341;87;25239;-86
2021/09/15 10:25:50;;;;;;;;;;;;;;;22.25;74.37;98203.66;1615517;87;20397;-86
2021/09/15 10:28:17;;;;;;;;;;;;;;;22.28;74.03;98202.45;1627911;87;24810;-86
2021/09/15 10:30:44;;;;;;;;;;;;;;;22.31;73.75;98200.77;1628908;87;22108;-86
2021/09/15 10:33:29;;;;;;;;;;;;;;;22.34;73.52;98201.20;1626734;87;26175;-86
2021/09/15 10:35:55;;;;;;;;;;;;;;;22.40;73.34;98198.30;1633014;87;24677;-86
2021/09/15 10:38:40;;;;;;;;;;;;;;;22.43;73.08;98196.57;1627369;87;20340;-86
2021/09/15 10:41:07;;;;;;;;;;;;;;;22.49;72.81;98197.16;1627898;87;24826;-86
2021/09/15 10:43:41;;;;;;;;;;;;;;;22.61;72.63;98200.16;1618119;87;22107;-85
2021/09/15 10:46:17;;;;;;;;;;;;;;;22.69;72.45;98197.39;1617803;86;21135;-85
2021/09/15 10:48:46;;;;;;;;;;;;;;;22.74;72.22;98193.17;1629250;87;25505;-86
2021/09/15 10:51:19;;;;;;;;;;;;;;;22.75;71.84;98196.13;1631063;86;20637;-85
2021/09/15 10:53:46;;;;;;;;;;;;;;;22.76;71.46;98200.45;1587251;89;24728;-86
2021/09/15 10:56:16;;;;;;;;;;;;;;;22.88;71.26;98190.11;1584458;89;21993;-86
2021/09/15 10:58:47;;;;;;;;;;;;;;;22.97;71.10;98190.28;1561420;90;26018;-85
2021/09/15 11:01:12;;;;;;;;;;;;;;;23.03;70.89;98188.70;1590408;89;24443;-85
2021/09/15 11:03:41;;;;;;;;;;;;;;;23.03;70.60;98184.69;1593966;89;20243;-85
2021/09/15 11:06:09;;;;;;;;;;;;;;;23.07;70.31;98181.98;1584435;89;24956;-86
2021/09/15 11:08:43;;;;;;;;;;;;;;;23.13;70.05;98171.87;1588131;89;22082;-85
2021/09/15 11:13:58;;;;;;;;;;;;;;;23.36;69.65;98162.58;1671472;85;24518;-85
2021/09/15 11:16:34;;;;;;;;;;;;;;;23.49;69.46;98163.73;1670295;84;20335;-85
2021/09/15 11:19:02;;;;;;;;;;;;;;;23.57;69.31;98155.05;1669938;84;25001;-86
2021/09/15 11:21:37;;;;;;;;;;;;;;;23.64;69.12;98154.58;1671100;84;22905;-86
2021/09/15 11:24:17;;;;;;;;;;;;;;;23.68;68.85;98146.48;1670503;85;25975;-85
2021/09/15 11:26:47;;;;;;;;;;;;;;;23.64;68.37;98146.56;1669320;84;24501;-86
2021/09/15 11:29:17;;;;;;;;;;;;;;;23.68;68.17;98138.46;1671203;84;20328;-86
2021/09/15 11:31:45;;;;;;;;;;;;;;;23.68;67.85;98138.46;1669094;85;24856;-86
2021/09/15 11:34:13;;;;;;;;;;;;;;;23.66;67.48;98132.51;1668893;84;22064;-85
2021/09/15 11:36:39;;;;;;;;;;;;;;;23.71;67.39;98134.58;1669457;85;25998;-86
2021/09/15 11:39:08;;;;;;;;;;;;;;;23.76;67.23;98134.30;1638966;85;24664;-86
2021/09/15 11:41:34;;;;;;;;;;;;;;;23.86;67.13;98134.44;1671307;84;20333;-86
2021/09/15 11:44:00;;;;;;;;;;;;;;;23.89;66.93;98125.53;1671940;85;24749;-85
2021/09/15 11:46:34;;;;;;;;;;;;;;;23.89;66.62;98124.20;1670639;85;20867;-85
2021/09/15 11:49:03;;;;;;;;;;;;;;;23.98;66.56;98123.50;1672574;84;25889;-85
2021/09/15 11:51:30;;;;;;;;;;;;;;;24.03;66.54;98127.22;1672325;84;24565;-86
2021/09/15 11:54:01;;;;;;;;;;;;;;;24.03;66.31;98125.06;1671113;85;20261;-85
2021/09/15 11:56:32;;;;;;;;;;;;;;;24.11;66.17;98123.02;1670764;84;24766;-85
2021/09/15 11:58:58;;;;;;;;;;;;;;;24.26;65.93;98116.74;1670443;84;22166;-85
2021/09/15 12:01:26;;;;;;;;;;;;;;;24.38;65.72;98113.28;1670201;84;26188;-85
2021/09/15 12:03:54;;;;;;;;;;;;;;;24.54;65.52;98112.91;1671277;84;24673;-85
2021/09/15 12:06:21;;;;;;;;;;;;;;;24.70;65.43;98117.55;1670916;84;20312;-85
2021/09/15 12:08:47;;;;;;;;;;;;;;;24.79;65.31;98118.98;1670671;84;24704;-85
2021/09/15 12:11:14;;;;;;;;;;;;;;;24.87;65.11;98114.78;1668821;84;22110;-86
2021/09/15 12:13:41;;;;;;;;;;;;;;;24.94;64.89;98111.09;1671539;84;26043;-85
2021/09/15 12:16:07;;;;;;;;;;;;;;;24.99;64.63;98107.28;1671765;84;24442;-85
2021/09/15 12:18:50;;;;;;;;;;;;;;;25.13;64.55;98112.13;1671687;85;20509;-86
2021/09/15 12:21:21;;;;;;;;;;;;;;;25.21;64.34;98112.41;1645590;86;24776;-85
2021/09/15 12:23:48;;;;;;;;;;;;;;;25.25;64.05;98101.61;1665026;86;21988;-87
2021/09/15 12:26:14;;;;;;;;;;;;;;;25.32;63.92;98100.55;1665214;85;25991;-87
2021/09/15 12:28:40;;;;;;;;;;;;;;;25.28;63.59;98107.37;1664688;84;24432;-85
2021/09/15 12:31:08;;;;;;;;;;;;;;;25.23;63.31;98107.69;1664409;85;20586;-86
2021/09/15 12:33:38;;;;;;;;;;;;;;;25.20;63.21;98103.55;1664567;85;24852;-85
2021/09/15 12:36:16;;;;;;;;;;;;;;;25.05;62.94;98096.26;1664645;85;23187;-86
2021/09/15 12:38:55;;;;;;;;;;;;;;;25.00;62.65;98092.04;1664912;86;26069;-85
2021/09/15 12:41:21;;;;;;;;;;;;;;;25.10;62.64;98087.59;1642516;86;26405;-86
2021/09/15 12:43:47;;;;;;;;;;;;;;;25.21;62.58;98082.95;1662491;84;20429;-86
2021/09/15 12:46:24;;;;;;;;;;;;;;;25.25;62.41;98085.03;1662679;85;24721;-85
2021/09/15 12:48:50;;;;;;;;;;;;;;;25.21;62.07;98081.09;1664164;85;21972;-86
2021/09/15 12:51:18;;;;;;;;;;;;;;;25.25;61.95;98080.19;1665055;86;21063;-85
2021/09/15 12:53:45;;;;;;;;;;;;;;;25.30;61.85;98071.00;1664800;85;24558;-86
2021/09/15 12:56:13;;;;;;;;;;;;;;;25.28;61.70;98060.48;1663622;84;20325;-85
2021/09/15 12:58:40;;;;;;;;;;;;;;;25.31;61.59;98059.26;1661080;85;24743;-87
2021/09/15 13:01:07;;;;;;;;;;;;;;;25.30;61.54;98059.77;1657372;85;21961;-86
2021/09/15 13:03:37;;;;;;;;;;;;;;;25.32;61.67;98060.88;1662288;85;26041;-86
2021/09/15 13:06:05;;;;;;;;;;;;;;;25.28;61.65;98064.50;1665153;85;25543;-86